Time;durP1;ratioP1;P1;durP2;ratioP2;P2;SDS_P1;SDS_P2;PMS_P1;PMS_P2;Temp;Humidity;BMP_temperature;BMP_pressure;BME280_temperature;BME280_humidity;BME280_pressure;Samples;Min_cycle;Max_cycle;Signal;HPM_P1;HPM_P2
2023/01/22 00:00:56;;;;;;;23.10;8.77;;;;;;;7.65;47.47;102998.66;5015983;28;20091;-62
2023/01/22 00:03:21;;;;;;;18.42;7.00;;;;;;;7.63;48.20;102991.56;4998539;28;20034;-62
2023/01/22 00:05:49;;;;;;;22.08;7.93;;;;;;;7.63;48.21;103007.56;5015710;28;20034;-62
2023/01/22 00:08:14;;;;;;;22.27;9.85;;;;;;;7.63;47.28;103002.22;5015659;28;20128;-62
2023/01/22 00:10:39;;;;;;;19.05;9.63;;;;;;;7.65;46.89;102995.97;5014678;28;20062;-62
2023/01/22 00:13:05;;;;;;;22.92;9.60;;;;;;;7.65;47.09;102982.63;5016624;28;20116;-62
2023/01/22 00:15:30;;;;;;;24.02;9.13;;;;;;;7.66;46.95;102985.25;5015090;28;20128;-62
2023/01/22 00:17:55;;;;;;;25.75;9.85;;;;;;;7.64;47.99;102987.09;5015990;28;20030;-62
2023/01/22 00:20:21;;;;;;;23.73;8.93;;;;;;;7.66;46.88;102987.91;5015229;28;20395;-62
2023/01/22 00:22:46;;;;;;;23.38;8.80;;;;;;;7.65;48.10;102977.31;5015267;28;20037;-62
2023/01/22 00:25:12;;;;;;;20.63;8.40;;;;;;;7.63;47.07;102969.34;4997704;28;20117;-62
2023/01/22 00:27:40;;;;;;;24.67;9.52;;;;;;;7.58;47.58;102961.53;5015370;28;20026;-61
2023/01/22 00:30:07;;;;;;;24.52;9.23;;;;;;;7.60;46.98;102972.13;5014649;28;20470;-60
2023/01/22 00:32:32;;;;;;;18.95;9.40;;;;;;;7.61;47.01;102971.22;4997625;28;20030;-61
2023/01/22 00:34:57;;;;;;;21.13;9.05;;;;;;;7.61;47.06;102966.75;5015201;28;20034;-61
2023/01/22 00:37:23;;;;;;;26.35;10.35;;;;;;;7.60;46.91;102967.66;5014009;28;20033;-61
2023/01/22 00:39:48;;;;;;;26.83;9.35;;;;;;;7.58;47.20;102958.00;5015035;28;20121;-61
2023/01/22 00:42:13;;;;;;;21.85;9.45;;;;;;;7.59;46.73;102957.06;5014300;28;20152;-61
2023/01/22 00:44:39;;;;;;;23.85;8.63;;;;;;;7.58;47.76;102961.53;4997313;28;20061;-61
2023/01/22 00:47:04;;;;;;;21.90;8.35;;;;;;;7.56;47.92;102960.72;5015175;28;20080;-61
2023/01/22 00:49:30;;;;;;;20.55;8.52;;;;;;;7.55;47.85;102960.78;5013637;28;20426;-61
2023/01/22 00:51:55;;;;;;;27.70;10.68;;;;;;;7.53;47.95;102958.16;5014927;28;20033;-61
2023/01/22 00:54:20;;;;;;;22.58;8.25;;;;;;;7.53;46.76;102957.28;5015515;28;20065;-61
2023/01/22 00:56:46;;;;;;;22.83;8.35;;;;;;;7.52;47.34;102952.88;5013459;28;20418;-61
2023/01/22 00:59:11;;;;;;;26.02;9.40;;;;;;;7.50;46.73;102952.94;5014592;28;20494;-61
2023/01/22 01:01:37;;;;;;;22.00;9.40;;;;;;;7.49;47.32;102961.88;5013500;28;20038;-62
2023/01/22 01:04:03;;;;;;;20.80;8.30;;;;;;;7.51;47.14;102953.78;5014657;28;20069;-62
2023/01/22 01:06:28;;;;;;;26.10;9.38;;;;;;;7.49;47.15;102948.53;5013393;28;20037;-61
2023/01/22 01:08:54;;;;;;;27.48;9.93;;;;;;;7.48;47.28;102948.59;5013651;28;20116;-61
2023/01/22 01:11:21;;;;;;;25.23;8.57;;;;;;;7.43;46.81;102932.75;5013175;28;20509;-61
2023/01/22 01:13:46;;;;;;;22.35;8.05;;;;;;;7.42;47.81;102933.72;5013117;28;20087;-61
2023/01/22 01:16:15;;;;;;;25.17;8.80;;;;;;;7.37;47.36;102918.81;5013207;28;20037;-61
2023/01/22 01:18:40;;;;;;;22.35;8.00;;;;;;;7.40;47.26;102924.00;5014598;28;20029;-61
2023/01/22 01:21:06;;;;;;;25.80;8.50;;;;;;;7.39;47.51;102933.81;5013450;28;20057;-62
2023/01/22 01:23:32;;;;;;;19.77;7.55;;;;;;;7.40;47.26;102932.88;5014378;28;20040;-61
2023/01/22 01:25:58;;;;;;;22.90;8.45;;;;;;;7.40;47.42;102940.88;5013102;28;20038;-61
2023/01/22 01:28:24;;;;;;;21.58;7.68;;;;;;;7.41;47.87;102939.09;5013566;28;20044;-62
2023/01/22 01:30:49;;;;;;;23.73;8.23;;;;;;;7.39;47.66;102941.81;5012851;28;20522;-61
2023/01/22 01:33:14;;;;;;;23.25;7.88;;;;;;;7.39;47.74;102938.28;5014480;28;20037;-61
2023/01/22 01:35:40;;;;;;;22.13;8.70;;;;;;;7.42;47.67;102946.16;5012753;28;20041;-61
2023/01/22 01:38:06;;;;;;;18.98;8.93;;;;;;;7.40;47.14;102946.19;5014129;28;20495;-63
2023/01/22 01:40:31;;;;;;;24.05;10.13;;;;;;;7.42;47.74;102944.38;5012926;28;20149;-61
2023/01/22 01:42:57;;;;;;;18.42;8.38;;;;;;;7.42;47.79;102951.50;5012529;28;20103;-61
2023/01/22 01:45:24;;;;;;;20.48;7.80;;;;;;;7.43;47.11;102948.75;5014156;28;20509;-62
2023/01/22 01:48:08;;;;;;;17.75;8.50;;;;;;;7.42;47.61;102954.16;5012725;28;20049;-62
2023/01/22 01:50:34;;;;;;;26.25;9.65;;;;;;;7.41;47.23;102958.63;5012656;28;20414;-61
2023/01/22 01:52:59;;;;;;;22.55;8.32;;;;;;;7.41;48.06;102963.94;5013863;28;20038;-61
2023/01/22 01:55:29;;;;;;;17.58;8.20;;;;;;;7.38;47.90;102941.84;5013772;28;20045;-61
2023/01/22 01:57:57;;;;;;;23.33;9.20;;;;;;;7.38;47.62;102941.84;5012661;28;20078;-62
2023/01/22 02:00:23;;;;;;;20.17;9.65;;;;;;;7.40;48.33;102946.19;5012953;28;20056;-61
2023/01/22 02:02:49;;;;;;;18.20;8.48;;;;;;;7.42;46.98;102939.03;5013989;28;20485;-61
2023/01/22 02:05:19;;;;;;;26.67;9.98;;;;;;;7.46;46.78;102939.78;5013283;28;20057;-61
2023/01/22 02:07:44;;;;;;;19.23;8.70;;;;;;;7.47;46.83;102945.06;5013802;28;20034;-61
2023/01/22 02:10:10;;;;;;;25.55;9.75;;;;;;;7.46;47.88;102935.31;5014314;28;20168;-62
2023/01/22 02:12:35;;;;;;;23.45;9.30;;;;;;;7.51;47.57;102937.78;5012457;28;20116;-61
2023/01/22 02:15:02;;;;;;;17.52;8.13;;;;;;;7.53;47.63;102928.84;5014149;28;20394;-61
2023/01/22 02:17:28;;;;;;;20.27;7.63;;;;;;;7.52;47.69;102923.56;5013332;28;20037;-61
2023/01/22 02:19:53;;;;;;;20.83;9.27;;;;;;;7.50;46.92;102915.63;5012026;28;20038;-61
2023/01/22 02:22:25;;;;;;;28.30;9.98;;;;;;;7.50;47.82;102912.97;5012154;28;20045;-62
2023/01/22 02:24:50;;;;;;;21.73;9.80;;;;;;;7.50;46.90;102914.75;5012257;28;20046;-61
2023/01/22 02:27:15;;;;;;;24.35;9.77;;;;;;;7.51;48.09;102911.13;5012410;28;20406;-61
2023/01/22 02:29:41;;;;;;;17.02;7.90;;;;;;;7.50;47.83;102904.97;5012062;28;20041;-61
2023/01/22 02:32:06;;;;;;;19.67;8.15;;;;;;;7.50;48.09;102904.97;5013150;28;20042;-62
2023/01/22 02:34:32;;;;;;;21.60;7.78;;;;;;;7.53;46.97;102920.84;5011815;28;20038;-61
2023/01/22 02:36:58;;;;;;;20.38;8.15;;;;;;;7.53;46.74;102918.19;4995607;28;20049;-61
2023/01/22 02:39:23;;;;;;;18.52;7.68;;;;;;;7.53;47.08;102915.50;5014604;28;20062;-62
2023/01/22 02:41:49;;;;;;;21.73;8.65;;;;;;;7.56;47.06;102910.06;5020358;28;20026;-61
2023/01/22 02:44:14;;;;;;;20.20;8.25;;;;;;;7.59;46.77;102901.91;5001953;28;20125;-61
2023/01/22 02:46:40;;;;;;;19.23;8.50;;;;;;;7.61;47.42;102901.88;5019593;28;20038;-61
2023/01/22 02:49:05;;;;;;;22.05;8.82;;;;;;;7.61;48.24;102900.09;5018479;28;20041;-62
2023/01/22 02:51:31;;;;;;;25.05;8.95;;;;;;;7.63;46.95;102900.00;5019709;28;20037;-62
2023/01/22 02:53:56;;;;;;;19.75;7.90;;;;;;;7.65;48.07;102907.97;5020776;28;20026;-61
2023/01/22 02:56:22;;;;;;;16.48;6.90;;;;;;;7.65;47.15;102891.97;5019717;28;20041;-61
2023/01/22 02:58:47;;;;;;;20.67;8.68;;;;;;;7.69;46.74;102904.22;5019585;28;20038;-61
2023/01/22 03:01:21;;;;;;;24.55;10.32;;;;;;;7.69;47.34;102906.91;5002108;28;20041;-61
2023/01/22 03:03:50;;;;;;;13.35;7.03;;;;;;;7.71;47.20;102899.69;5019263;28;20057;-61
2023/01/22 03:06:20;;;;;;;20.90;8.25;;;;;;;7.71;47.51;102889.03;5018691;28;20065;-61
2023/01/22 03:08:54;;;;;;;25.95;8.43;;;;;;;7.73;48.08;102887.19;5018422;28;20033;-61
2023/01/22 03:11:19;;;;;;;20.58;8.45;;;;;;;7.74;46.85;102878.25;5002172;28;20025;-61
2023/01/22 03:21:58;;;;;;;20.52;9.27;;;;;;;7.78;47.67;102878.09;5019369;28;20541;-61
2023/01/22 03:24:24;;;;;;;19.73;8.70;;;;;;;7.78;47.06;102874.53;5018127;28;20065;-62
2023/01/22 03:26:49;;;;;;;19.20;7.60;;;;;;;7.80;47.11;102878.00;5018488;28;20053;-62
2023/01/22 03:29:15;;;;;;;19.88;8.55;;;;;;;7.82;48.24;102870.81;5024518;28;20044;-62
2023/01/22 03:31:40;;;;;;;16.08;7.22;;;;;;;7.83;47.54;102867.22;5020222;28;20056;-62
2023/01/22 03:34:05;;;;;;;17.17;7.78;;;;;;;7.85;46.87;102873.34;5019177;28;20125;-61
2023/01/22 03:36:31;;;;;;;18.88;7.03;;;;;;;7.84;47.13;102876.97;5019051;28;20521;-61
2023/01/22 03:38:56;;;;;;;15.23;7.97;;;;;;;7.86;46.96;102869.75;5018436;28;20030;-61
2023/01/22 03:41:21;;;;;;;19.15;8.40;;;;;;;7.85;47.39;102863.56;5017953;28;20068;-61
2023/01/22 03:43:47;;;;;;;18.35;8.68;;;;;;;7.85;48.09;102854.69;5016758;28;20520;-61
2023/01/22 03:46:16;;;;;;;24.52;7.90;;;;;;;7.87;47.42;102864.34;5001561;28;20045;-61
2023/01/22 03:48:42;;;;;;;18.70;7.78;;;;;;;7.89;47.55;102869.63;5019160;28;20033;-61
2023/01/22 03:51:12;;;;;;;18.63;7.57;;;;;;;7.90;47.44;102863.38;5016082;28;20091;-61
2023/01/22 03:53:38;;;;;;;15.05;7.10;;;;;;;7.88;47.99;102857.22;5016221;28;20040;-61
2023/01/22 03:56:06;;;;;;;17.20;8.00;;;;;;;7.93;47.35;102865.91;5015913;28;20117;-61
2023/01/22 03:58:32;;;;;;;23.75;9.10;;;;;;;7.94;47.13;102857.84;5014545;28;20549;-61
2023/01/22 04:01:10;;;;;;;19.50;8.00;;;;;;;7.93;47.84;102850.75;5014899;28;20394;-61
2023/01/22 04:03:36;;;;;;;15.55;6.68;;;;;;;7.99;47.18;102854.97;4997972;28;20022;-62
2023/01/22 04:06:02;;;;;;;15.07;7.43;;;;;;;8.02;47.45;102854.88;5015604;28;20091;-61
2023/01/22 04:08:29;;;;;;;16.85;6.82;;;;;;;8.04;47.86;102858.34;5015035;28;20029;-61
2023/01/22 04:10:56;;;;;;;16.15;7.45;;;;;;;8.05;47.23;102860.06;5014641;28;20418;-61
2023/01/22 04:13:22;;;;;;;18.92;8.10;;;;;;;8.06;48.16;102856.50;5014495;28;20542;-61
2023/01/22 04:15:47;;;;;;;16.25;7.10;;;;;;;8.07;47.00;102853.75;5015631;28;20029;-61
2023/01/22 04:18:13;;;;;;;18.92;8.02;;;;;;;8.09;47.69;102843.03;5014611;28;20048;-61
2023/01/22 04:20:39;;;;;;;22.40;8.00;;;;;;;8.09;47.30;102851.91;5014190;28;20532;-61
2023/01/22 04:23:06;;;;;;;24.20;8.35;;;;;;;8.11;47.64;102854.50;5014493;28;20026;-61
2023/01/22 04:25:32;;;;;;;19.35;7.20;;;;;;;8.11;46.94;102838.47;5014202;28;20054;-62
2023/01/22 04:27:57;;;;;;;16.92;7.88;;;;;;;8.14;46.91;102851.69;5014162;28;20057;-61
2023/01/22 04:30:22;;;;;;;20.27;8.45;;;;;;;8.14;48.31;102849.03;5014556;28;20109;-61
2023/01/22 04:32:48;;;;;;;17.38;7.53;;;;;;;8.15;47.71;102848.09;5014235;28;20042;-61
2023/01/22 04:35:13;;;;;;;19.02;8.27;;;;;;;8.13;47.39;102853.50;5014164;28;20520;-62
2023/01/22 04:37:39;;;;;;;18.88;8.77;;;;;;;8.14;46.92;102849.91;5015168;28;20481;-61
2023/01/22 04:40:04;;;;;;;20.45;7.85;;;;;;;8.15;47.81;102845.44;5014936;28;20135;-61
2023/01/22 04:42:31;;;;;;;16.52;8.10;;;;;;;8.17;47.05;102851.56;5013736;28;20100;-62
2023/01/22 04:44:57;;;;;;;16.15;7.00;;;;;;;8.17;47.64;102849.78;4997832;28;20034;-61
2023/01/22 04:47:22;;;;;;;17.25;7.93;;;;;;;8.18;47.70;102862.16;5013607;28;20045;-61
2023/01/22 04:49:48;;;;;;;13.65;7.72;;;;;;;8.19;47.67;102849.69;5012691;28;20096;-61
2023/01/22 04:52:13;;;;;;;18.65;6.95;;;;;;;8.20;47.07;102849.66;5013747;28;20054;-63
2023/01/22 04:54:39;;;;;;;19.15;7.55;;;;;;;8.23;47.54;102845.97;5015343;28;20158;-61
2023/01/22 04:57:04;;;;;;;17.40;8.43;;;;;;;8.22;47.69;102846.91;5013935;28;20068;-62
2023/01/22 04:59:30;;;;;;;17.42;6.72;;;;;;;8.23;47.70;102853.13;4997340;28;20498;-61
2023/01/22 05:01:55;;;;;;;15.27;7.45;;;;;;;8.22;48.14;102854.91;5013017;28;20042;-62
2023/01/22 05:04:22;;;;;;;17.70;7.72;;;;;;;8.20;47.57;102855.00;5012872;28;20054;-62
2023/01/22 05:06:48;;;;;;;16.90;6.78;;;;;;;8.20;47.27;102860.31;5014753;28;20036;-61
2023/01/22 05:09:13;;;;;;;15.05;7.20;;;;;;;8.21;46.77;102856.72;5014889;28;20033;-61
2023/01/22 05:11:39;;;;;;;20.88;8.38;;;;;;;8.18;47.12;102847.94;5013194;28;20049;-61
2023/01/22 05:14:05;;;;;;;16.15;7.50;;;;;;;8.21;47.46;102855.84;5014379;28;20124;-60
2023/01/22 05:16:30;;;;;;;16.63;7.38;;;;;;;8.20;47.48;102857.66;5013314;28;20090;-60
2023/01/22 05:18:55;;;;;;;16.05;6.70;;;;;;;8.20;46.91;102856.78;5014576;28;20100;-60
2023/01/22 05:21:21;;;;;;;18.60;7.45;;;;;;;8.21;47.84;102861.16;5013616;28;20105;-61
2023/01/22 05:23:46;;;;;;;19.83;8.30;;;;;;;8.20;47.32;102859.44;5014715;28;20045;-61
2023/01/22 05:26:11;;;;;;;16.38;7.68;;;;;;;8.20;47.00;102856.78;5014148;28;20030;-60
2023/01/22 05:28:37;;;;;;;19.27;8.68;;;;;;;8.19;47.34;102863.03;5013121;28;20534;-60
2023/01/22 05:31:02;;;;;;;16.27;7.30;;;;;;;8.20;47.16;102870.13;5012932;28;20065;-60
2023/01/22 05:33:29;;;;;;;15.70;7.70;;;;;;;8.19;47.00;102863.03;5014128;28;20037;-60
2023/01/22 05:35:58;;;;;;;18.45;7.50;;;;;;;8.18;47.58;102867.50;5013311;28;20497;-60
2023/01/22 05:38:24;;;;;;;21.95;8.48;;;;;;;8.18;47.24;102878.19;5014049;28;20034;-60
2023/01/22 05:40:51;;;;;;;19.02;7.95;;;;;;;8.19;47.63;102873.72;5014360;28;20049;-60
2023/01/22 05:43:16;;;;;;;18.88;8.07;;;;;;;8.19;47.65;102879.06;5012965;28;20045;-60
2023/01/22 05:45:42;;;;;;;15.43;6.88;;;;;;;8.18;47.78;102874.63;5013984;28;20485;-60
2023/01/22 05:48:07;;;;;;;16.27;7.57;;;;;;;8.18;46.93;102877.31;5015034;28;20033;-61
2023/01/22 05:50:33;;;;;;;18.10;7.13;;;;;;;8.20;47.60;102875.47;5014349;28;20088;-60
2023/01/22 05:52:58;;;;;;;15.50;7.00;;;;;;;8.20;47.00;102880.81;5012596;28;20490;-61
2023/01/22 05:55:23;;;;;;;14.00;6.80;;;;;;;8.20;47.61;102879.00;5013933;28;20036;-61
2023/01/22 05:57:49;;;;;;;19.83;9.57;;;;;;;8.09;47.30;102859.03;5013966;28;20084;-61
2023/01/22 06:00:15;;;;;;;17.42;7.00;;;;;;;8.21;47.62;102874.50;5013395;28;20042;-61
2023/01/22 06:02:40;;;;;;;19.40;7.05;;;;;;;8.22;47.36;102873.59;5012585;28;20038;-61
2023/01/22 06:05:06;;;;;;;17.00;6.90;;;;;;;8.24;47.42;102882.41;5013371;28;20081;-61
2023/01/22 06:07:32;;;;;;;16.17;7.55;;;;;;;8.25;46.93;102884.16;5014060;28;20414;-61
2023/01/22 06:09:57;;;;;;;16.70;7.55;;;;;;;8.27;47.40;102871.63;5013906;28;20034;-61
2023/01/22 06:12:22;;;;;;;15.65;6.72;;;;;;;8.26;47.82;102891.25;5014393;28;20026;-61
2023/01/22 06:14:48;;;;;;;12.35;6.53;;;;;;;8.27;47.64;102881.41;5013281;28;20091;-61
2023/01/22 06:17:13;;;;;;;17.85;7.10;;;;;;;8.26;46.78;102882.34;5013577;28;20042;-61
2023/01/22 06:19:39;;;;;;;17.33;7.53;;;;;;;8.26;47.11;102885.91;5012240;28;20046;-61
2023/01/22 06:22:04;;;;;;;11.93;6.22;;;;;;;8.28;47.18;102888.53;5013603;28;20038;-61
2023/01/22 06:24:29;;;;;;;14.77;6.95;;;;;;;8.30;47.40;102886.66;5012367;28;20113;-61
2023/01/22 06:26:55;;;;;;;12.23;6.22;;;;;;;8.30;47.08;102894.66;5013963;28;20176;-61
2023/01/22 06:29:20;;;;;;;12.32;6.22;;;;;;;8.30;46.95;102892.88;5013461;28;20038;-61
2023/01/22 06:31:46;;;;;;;18.05;7.45;;;;;;;8.31;46.79;102883.94;5012420;28;20049;-61
2023/01/22 06:34:11;;;;;;;17.15;6.72;;;;;;;8.30;47.04;102881.31;5012228;28;20124;-61
2023/01/22 06:36:36;;;;;;;15.45;6.03;;;;;;;8.29;47.55;102885.78;5012813;28;20041;-61
2023/01/22 06:39:02;;;;;;;17.10;7.70;;;;;;;8.31;47.62;102899.06;5013725;28;20034;-61
2023/01/22 06:41:28;;;;;;;14.52;7.03;;;;;;;8.32;47.28;102893.66;4996264;28;20038;-61
2023/01/22 06:43:53;;;;;;;17.02;7.07;;;;;;;8.31;47.13;102894.63;5011824;28;20065;-61
2023/01/22 06:46:18;;;;;;;15.70;6.88;;;;;;;8.35;47.81;102896.19;5012109;28;20041;-61
2023/01/22 06:48:45;;;;;;;15.15;7.70;;;;;;;8.33;47.61;102892.75;5013227;28;20030;-61
2023/01/22 06:51:11;;;;;;;15.57;7.75;;;;;;;8.35;47.33;102896.19;5012600;28;20405;-61
2023/01/22 06:53:36;;;;;;;15.73;6.75;;;;;;;8.36;46.33;102899.75;5012541;28;20037;-61
2023/01/22 06:56:02;;;;;;;19.67;7.10;;;;;;;8.37;47.42;102898.81;5013806;28;20414;-61
2023/01/22 06:58:27;;;;;;;14.23;7.35;;;;;;;8.35;46.84;102898.88;5012073;28;20066;-62
2023/01/22 07:00:52;;;;;;;14.85;6.53;;;;;;;8.35;46.79;102896.19;5011892;28;20037;-61
2023/01/22 07:03:18;;;;;;;14.40;6.93;;;;;;;8.35;47.66;102896.19;5013549;28;20041;-61
2023/01/22 07:05:43;;;;;;;15.93;7.53;;;;;;;8.34;47.85;102898.94;5011543;28;20498;-62
2023/01/22 07:08:13;;;;;;;17.45;6.18;;;;;;;8.36;47.20;102900.63;5013304;28;20581;-62
2023/01/22 07:10:39;;;;;;;14.77;7.10;;;;;;;8.36;47.33;102908.63;5012236;28;20072;-61
2023/01/22 07:13:06;;;;;;;18.48;8.15;;;;;;;8.35;47.02;102906.88;5012132;28;20116;-62
2023/01/22 07:15:32;;;;;;;17.08;7.20;;;;;;;8.33;46.91;102913.22;5012602;28;20115;-61
2023/01/22 07:17:57;;;;;;;13.20;6.35;;;;;;;8.35;47.41;102909.56;5012961;28;20447;-62
2023/01/22 07:20:23;;;;;;;14.68;6.63;;;;;;;8.35;47.72;102911.38;5013585;28;20069;-62
2023/01/22 07:22:50;;;;;;;15.45;7.35;;;;;;;8.33;47.88;102914.09;5012820;28;20042;-62
2023/01/22 07:25:16;;;;;;;13.38;7.65;;;;;;;8.34;47.85;102915.84;5012724;28;20116;-61
2023/01/22 07:27:41;;;;;;;14.80;6.60;;;;;;;8.26;47.99;102912.59;5015292;28;20526;-61
2023/01/22 07:30:07;;;;;;;16.55;7.13;;;;;;;8.32;46.99;102920.34;5017214;28;20101;-61
2023/01/22 07:32:34;;;;;;;13.20;7.00;;;;;;;8.34;47.56;102926.53;5015314;28;20034;-61
2023/01/22 07:34:59;;;;;;;20.15;7.90;;;;;;;8.35;47.14;102922.91;5016521;28;20117;-61
2023/01/22 07:37:24;;;;;;;16.10;7.28;;;;;;;8.34;46.89;102921.19;5016295;28;20137;-62
2023/01/22 07:39:50;;;;;;;13.10;6.25;;;;;;;8.23;47.94;102902.88;5016486;28;20428;-62
2023/01/22 07:42:16;;;;;;;15.43;6.68;;;;;;;8.34;47.57;102926.53;5016719;28;20034;-61
2023/01/22 07:44:41;;;;;;;16.92;7.07;;;;;;;8.34;47.65;102923.84;5015303;28;20041;-61
2023/01/22 07:47:07;;;;;;;16.20;6.78;;;;;;;8.38;47.35;102932.59;5015132;28;20409;-61
2023/01/22 07:49:33;;;;;;;12.98;6.78;;;;;;;8.37;47.03;102928.19;5015286;28;20117;-61
2023/01/22 07:51:58;;;;;;;16.92;6.57;;;;;;;8.37;46.95;102929.06;5015263;28;20058;-62
2023/01/22 07:54:24;;;;;;;17.50;7.75;;;;;;;8.38;47.99;102938.78;5016675;28;20065;-62
2023/01/22 07:56:49;;;;;;;13.80;5.97;;;;;;;8.40;47.54;102933.41;5015411;28;20038;-62
2023/01/22 07:59:14;;;;;;;17.63;7.47;;;;;;;8.41;47.15;102936.00;5016165;28;20414;-61
2023/01/22 08:01:40;;;;;;;11.68;6.05;;;;;;;8.42;47.38;102940.44;5016381;28;20524;-62
2023/01/22 08:04:05;;;;;;;14.77;6.47;;;;;;;8.35;46.85;102928.25;5014802;28;20044;-62
2023/01/22 08:06:31;;;;;;;16.05;6.22;;;;;;;8.40;47.94;102947.63;5018020;28;20026;-62
2023/01/22 08:08:58;;;;;;;16.90;7.03;;;;;;;8.39;47.66;102945.00;5024650;28;20053;-61
2023/01/22 08:11:23;;;;;;;16.63;7.25;;;;;;;8.41;47.41;102943.13;5016055;28;20183;-62
2023/01/22 08:13:49;;;;;;;18.42;7.38;;;;;;;8.44;47.28;102943.88;5014705;28;20501;-62
2023/01/22 08:16:14;;;;;;;12.95;6.53;;;;;;;8.46;46.89;102938.50;5015963;28;20038;-62
2023/01/22 08:18:40;;;;;;;22.73;7.47;;;;;;;8.45;47.11;102945.63;5014601;28;20049;-62
2023/01/22 08:21:05;;;;;;;13.63;6.68;;;;;;;8.46;47.68;102944.69;5016286;28;20187;-62
2023/01/22 08:23:30;;;;;;;14.23;6.90;;;;;;;8.48;47.68;102941.97;5015737;28;20040;-61
2023/01/22 08:25:59;;;;;;;13.88;7.20;;;;;;;8.51;47.04;102945.41;5014780;28;20117;-62
2023/01/22 08:28:25;;;;;;;15.50;6.68;;;;;;;8.51;47.18;102945.41;4997706;28;20034;-61
2023/01/22 08:30:51;;;;;;;13.20;6.20;;;;;;;8.52;47.61;102956.91;5015770;28;20125;-62
2023/01/22 08:33:16;;;;;;;14.20;6.20;;;;;;;8.53;47.72;102959.53;5014937;28;20061;-62
2023/01/22 08:35:42;;;;;;;18.30;7.13;;;;;;;8.54;46.80;102955.06;5014463;28;20149;-61
2023/01/22 08:38:07;;;;;;;16.33;6.07;;;;;;;8.57;47.04;102955.78;5015434;28;20510;-62
2023/01/22 08:40:32;;;;;;;16.00;7.50;;;;;;;8.59;47.26;102955.75;5016097;28;20037;-62
2023/01/22 08:42:58;;;;;;;11.95;5.90;;;;;;;8.61;47.33;102960.09;5015713;28;20498;-62
2023/01/22 08:45:23;;;;;;;15.48;6.03;;;;;;;8.62;47.54;102964.50;5014334;28;20034;-63
2023/01/22 08:47:50;;;;;;;12.90;6.38;;;;;;;8.64;46.98;102959.97;4999367;28;20026;-62
2023/01/22 08:50:16;;;;;;;18.27;8.00;;;;;;;8.68;47.41;102964.22;5015972;28;20038;-62
2023/01/22 08:52:41;;;;;;;10.27;5.82;;;;;;;8.64;46.96;102957.28;5015701;28;20034;-62
2023/01/22 08:55:08;;;;;;;14.13;6.32;;;;;;;8.68;47.02;102964.22;5015725;28;20065;-62
2023/01/22 08:57:35;;;;;;;13.48;6.28;;;;;;;8.66;46.84;102955.41;5015174;28;20037;-62
2023/01/22 09:00:00;;;;;;;10.57;6.22;;;;;;;8.69;46.99;102963.31;5014779;28;20087;-62
2023/01/22 09:02:26;;;;;;;11.80;5.45;;;;;;;8.72;47.42;102964.97;4997656;28;20502;-62
2023/01/22 09:04:52;;;;;;;10.43;5.22;;;;;;;8.70;46.84;102957.03;5015475;28;20072;-62
2023/01/22 09:07:17;;;;;;;11.52;5.20;;;;;;;8.75;46.94;102956.84;5015214;28;20490;-62
2023/01/22 09:09:43;;;;;;;13.10;5.75;;;;;;;8.69;47.29;102959.75;5013697;28;20038;-62
2023/01/22 09:12:08;;;;;;;14.60;5.72;;;;;;;8.75;46.91;102975.53;4998155;28;20033;-62
2023/01/22 09:14:33;;;;;;;10.55;4.65;;;;;;;8.71;47.69;102964.09;5014989;28;20387;-62
2023/01/22 09:16:59;;;;;;;10.75;5.97;;;;;;;8.74;47.38;102973.78;5015080;28;20034;-62
2023/01/22 09:19:24;;;;;;;12.85;5.90;;;;;;;8.74;47.44;102969.31;5013973;28;20538;-62
2023/01/22 09:21:50;;;;;;;14.32;5.63;;;;;;;8.76;46.93;102961.25;5013679;28;20064;-62
2023/01/22 09:24:15;;;;;;;12.88;6.30;;;;;;;8.77;47.20;102968.31;5015283;28;20121;-62
2023/01/22 09:26:41;;;;;;;13.68;5.88;;;;;;;8.79;47.09;102974.47;5013704;28;20037;-62
2023/01/22 09:29:06;;;;;;;9.25;5.28;;;;;;;8.77;46.76;102960.28;5013253;28;20062;-62
2023/01/22 09:31:33;;;;;;;10.77;5.40;;;;;;;8.76;47.68;102967.47;5014616;28;20092;-62
2023/01/22 09:33:58;;;;;;;12.45;5.72;;;;;;;8.81;47.58;102966.38;5013702;28;20037;-62
2023/01/22 09:36:24;;;;;;;10.77;6.07;;;;;;;8.83;47.57;102967.19;5013542;28;20444;-62
2023/01/22 09:38:49;;;;;;;10.70;4.63;;;;;;;8.82;47.22;102961.00;5013733;28;20241;-63
2023/01/22 09:41:26;;;;;;;13.27;6.18;;;;;;;8.83;47.54;102964.50;5014379;28;20613;-62
2023/01/22 09:43:56;;;;;;;11.27;5.82;;;;;;;8.89;47.60;102967.81;5013849;28;20037;-62
2023/01/22 09:46:36;;;;;;;14.77;5.57;;;;;;;8.91;47.06;102976.59;5013027;28;20464;-62
2023/01/22 09:49:09;;;;;;;10.68;4.97;;;;;;;8.92;47.17;102972.13;4996077;28;20061;-62
2023/01/22 09:51:35;;;;;;;10.57;5.47;;;;;;;8.91;46.75;102965.03;5012919;28;20030;-63
2023/01/22 09:54:02;;;;;;;10.38;5.45;;;;;;;8.94;46.63;102962.25;5014717;28;20033;-62
2023/01/22 09:56:36;;;;;;;9.30;5.38;;;;;;;8.99;47.12;102968.28;4996816;28;20084;-62
2023/01/22 09:59:03;;;;;;;10.98;5.22;;;;;;;8.99;46.90;102978.97;5013085;28;20125;-62
2023/01/22 10:01:29;;;;;;;11.85;5.15;;;;;;;9.01;47.08;102969.06;4996518;28;20514;-62
2023/01/22 10:04:02;;;;;;;10.65;4.97;;;;;;;9.04;47.24;102982.31;4997327;28;20030;-63
2023/01/22 10:06:29;;;;;;;10.20;5.50;;;;;;;9.06;47.02;102975.09;5014530;28;20050;-62
2023/01/22 10:09:09;;;;;;;9.85;5.35;;;;;;;9.08;47.27;102967.84;5014849;28;20025;-63
2023/01/22 10:11:38;;;;;;;17.80;6.50;;;;;;;9.09;46.83;102974.97;5015961;28;20033;-62
2023/01/22 10:14:07;;;;;;;11.02;5.35;;;;;;;9.09;47.35;102973.16;5013868;28;20038;-62
2023/01/22 10:16:32;;;;;;;10.95;5.07;;;;;;;9.10;46.64;102972.19;5012517;28;20168;-62
2023/01/22 10:19:13;;;;;;;10.75;5.85;;;;;;;9.13;46.97;102973.88;5013913;28;20125;-62
2023/01/22 10:21:45;;;;;;;12.40;5.72;;;;;;;9.13;47.42;102972.06;5013767;28;20034;-61
2023/01/22 10:24:10;;;;;;;14.98;6.40;;;;;;;9.13;46.81;102969.41;5014360;28;20025;-61
2023/01/22 10:26:45;;;;;;;11.13;5.18;;;;;;;9.19;47.04;102978.94;5012582;28;20041;-61
2023/01/22 10:29:23;;;;;;;10.73;5.50;;;;;;;9.21;47.14;102979.78;4996256;28;20042;-62
2023/01/22 10:31:54;;;;;;;9.82;5.35;;;;;;;9.21;46.91;102974.44;5013659;28;20037;-62
2023/01/22 10:34:35;;;;;;;10.77;5.47;;;;;;;9.27;47.21;102979.47;5012647;28;20228;-62
2023/01/22 10:37:18;;;;;;;10.07;4.97;;;;;;;9.24;47.22;102968.94;5012476;28;20046;-62
2023/01/22 10:39:46;;;;;;;10.05;5.25;;;;;;;9.33;47.07;102971.19;5013572;28;20044;-62
2023/01/22 10:42:24;;;;;;;10.55;4.95;;;;;;;9.32;47.24;102962.28;4996439;28;20033;-62
2023/01/22 10:44:53;;;;;;;13.20;5.68;;;;;;;9.33;46.88;102968.50;5012514;28;20048;-62
2023/01/22 10:47:21;;;;;;;12.05;6.32;;;;;;;9.30;47.01;102974.88;5013698;28;20068;-62
2023/01/22 10:49:48;;;;;;;10.57;5.78;;;;;;;9.27;47.06;102963.44;5013355;28;20038;-62
2023/01/22 10:52:26;;;;;;;13.60;5.95;;;;;;;9.29;47.37;102972.28;5012420;28;20092;-62
2023/01/22 10:54:56;;;;;;;12.90;5.68;;;;;;;9.26;47.53;102970.63;5012062;28;20045;-62
2023/01/22 10:57:28;;;;;;;11.85;6.28;;;;;;;9.24;46.81;102966.28;5012471;28;20060;-62
2023/01/22 11:00:14;;;;;;;14.90;5.18;;;;;;;9.23;47.64;102965.41;5014839;28;20038;-62
2023/01/22 11:02:41;;;;;;;10.50;5.10;;;;;;;9.21;46.83;102963.72;5017376;28;20080;-62
2023/01/22 11:05:24;;;;;;;11.52;5.43;;;;;;;9.16;47.21;102969.25;5017781;28;20089;-62
2023/01/22 11:07:55;;;;;;;9.98;5.35;;;;;;;9.08;47.94;102946.47;5017228;28;20593;-62
2023/01/22 11:10:57;;;;;;;10.27;5.82;;;;;;;9.08;47.22;102951.81;5017128;28;20515;-63
2023/01/22 11:13:53;;;;;;;11.90;5.50;;;;;;;9.05;47.09;102947.47;5007535;28;20502;-62
2023/01/22 11:16:23;;;;;;;14.70;6.05;;;;;;;9.03;47.48;102948.50;5017033;28;20088;-63
2023/01/22 11:18:57;;;;;;;10.27;5.72;;;;;;;9.02;46.94;102946.75;5016911;28;20168;-62
2023/01/22 11:21:31;;;;;;;12.77;6.80;;;;;;;9.05;47.07;102950.16;5001189;28;20038;-62
2023/01/22 11:24:21;;;;;;;12.05;5.88;;;;;;;9.08;47.59;102952.69;5017537;28;20083;-62
2023/01/22 11:27:08;;;;;;;12.35;5.28;;;;;;;9.08;47.15;102957.16;5016896;28;20113;-63
2023/01/22 11:30:11;;;;;;;13.15;6.78;;;;;;;9.08;47.58;102965.19;5017727;28;20029;-63
2023/01/22 11:33:01;;;;;;;13.27;5.57;;;;;;;9.06;47.57;102959.91;5017923;28;20034;-63